createdAt,value
2018-07-19T00:01:56.551Z,21.80
2018-07-19T00:04:27.011Z,21.80
2018-07-19T00:06:57.929Z,21.80
2018-07-19T00:11:58.933Z,21.70
2018-07-19T00:14:29.490Z,21.70
2018-07-19T00:17:00.058Z,21.70
2018-07-19T00:19:30.722Z,21.70
2018-07-19T00:22:01.299Z,21.70
2018-07-19T00:24:31.817Z,21.70
2018-07-19T00:27:02.413Z,21.60
2018-07-19T00:29:32.958Z,21.60
2018-07-19T00:32:03.398Z,21.60
2018-07-19T00:34:34.006Z,21.50
2018-07-19T00:37:04.447Z,21.50
2018-07-19T00:39:35.180Z,21.50
2018-07-19T00:42:06.034Z,21.40
2018-07-19T00:44:36.637Z,21.40
2018-07-19T00:47:07.219Z,21.40
2018-07-19T00:49:37.909Z,21.40
2018-07-19T00:52:08.597Z,21.40
2018-07-19T00:54:39.217Z,21.30
2018-07-19T00:57:10.014Z,21.30
2018-07-19T00:59:40.724Z,21.30
2018-07-19T01:02:11.249Z,21.30
2018-07-19T01:04:41.905Z,21.20
2018-07-19T01:07:12.852Z,21.20
2018-07-19T01:09:43.597Z,21.20
2018-07-19T01:12:14.311Z,21.20
2018-07-19T01:14:44.886Z,21.20
2018-07-19T01:17:15.365Z,21.10
2018-07-19T01:19:45.999Z,21.10
2018-07-19T01:24:46.358Z,21.10
2018-07-19T01:27:17.128Z,21.00
2018-07-19T01:29:47.696Z,21.00
2018-07-19T01:32:18.130Z,21.00
2018-07-19T01:34:48.743Z,21.00
2018-07-19T01:37:19.384Z,20.90
2018-07-19T01:39:50.019Z,20.90
2018-07-19T01:42:30.864Z,20.90
2018-07-19T01:45:01.451Z,20.90
2018-07-19T01:47:32.126Z,20.90
2018-07-19T01:50:02.842Z,20.90
2018-07-19T01:52:33.388Z,20.80
2018-07-19T01:55:04.062Z,20.80
2018-07-19T01:57:36.669Z,20.80
2018-07-19T02:00:07.664Z,20.80
2018-07-19T02:02:38.224Z,20.70
2018-07-19T02:05:11.293Z,20.70
2018-07-19T02:07:45.311Z,20.70
2018-07-19T02:13:01.750Z,20.70
2018-07-19T02:15:33.890Z,20.70
2018-07-19T02:18:04.325Z,20.60
2018-07-19T02:20:34.998Z,20.60
2018-07-19T02:23:06.641Z,20.60
2018-07-19T02:25:42.506Z,20.50
2018-07-19T02:28:13.777Z,20.50
2018-07-19T02:30:45.671Z,20.50
2018-07-19T02:33:18.604Z,20.50
2018-07-19T02:35:50.200Z,20.40
2018-07-19T02:38:20.648Z,20.40
2018-07-19T02:40:51.674Z,20.40
2018-07-19T02:43:22.420Z,20.40
2018-07-19T02:45:52.829Z,20.30
2018-07-19T02:48:23.433Z,20.30
2018-07-19T02:50:53.970Z,20.30
2018-07-19T02:53:24.708Z,20.30
2018-07-19T02:55:55.135Z,20.30
2018-07-19T02:58:25.878Z,20.20
2018-07-19T03:00:56.428Z,20.20
2018-07-19T03:03:26.939Z,20.20
2018-07-19T03:05:57.439Z,20.20
2018-07-19T03:08:28.185Z,20.20
2018-07-19T03:10:58.737Z,20.10
2018-07-19T03:13:30.303Z,20.10
2018-07-19T03:16:00.818Z,20.10
2018-07-19T03:18:31.935Z,20.10
2018-07-19T03:21:02.994Z,20.00
2018-07-19T03:23:42.988Z,20.00
2018-07-19T03:26:17.054Z,20.00
2018-07-19T03:28:52.769Z,20.00
2018-07-19T03:31:26.736Z,19.90
2018-07-19T03:33:57.354Z,19.90
2018-07-19T03:36:27.995Z,19.90
2018-07-19T03:38:58.512Z,19.90
2018-07-19T03:41:29.121Z,19.90
2018-07-19T03:43:59.578Z,19.90
2018-07-19T03:46:30.097Z,19.90
2018-07-19T03:49:00.700Z,19.80
2018-07-19T03:51:31.248Z,19.80
2018-07-19T03:54:01.901Z,19.70
2018-07-19T03:56:32.424Z,19.70
2018-07-19T03:59:02.979Z,19.70
2018-07-19T04:01:33.857Z,19.70
2018-07-19T04:04:04.526Z,19.70
2018-07-19T04:06:35.028Z,19.70
2018-07-19T04:09:07.207Z,19.60
2018-07-19T04:11:37.641Z,19.70
2018-07-19T04:14:08.342Z,19.60
2018-07-19T04:16:38.897Z,19.60
2018-07-19T04:19:23.799Z,19.60
2018-07-19T04:21:54.405Z,19.60
2018-07-19T04:24:24.838Z,19.60
2018-07-19T04:26:55.130Z,19.50
2018-07-19T04:29:25.777Z,19.50
2018-07-19T04:31:56.283Z,19.50
2018-07-19T04:34:26.763Z,19.50
2018-07-19T04:36:57.406Z,19.50
2018-07-19T04:39:28.205Z,19.50
2018-07-19T04:41:58.892Z,19.50
2018-07-19T04:44:29.469Z,19.50
2018-07-19T04:47:00.803Z,19.40
2018-07-19T04:49:33.122Z,19.40
2018-07-19T04:52:03.757Z,19.40
2018-07-19T04:54:34.731Z,19.40
2018-07-19T04:57:05.286Z,19.40
2018-07-19T04:59:36.056Z,19.40
2018-07-19T05:02:06.910Z,19.30
2018-07-19T05:04:37.370Z,19.30
2018-07-19T05:07:08.023Z,19.30
2018-07-19T05:09:39.678Z,19.30
2018-07-19T05:12:10.639Z,19.30
2018-07-19T05:14:41.170Z,19.30
2018-07-19T05:17:12.038Z,19.30
2018-07-19T05:19:42.992Z,19.30
2018-07-19T05:22:13.826Z,19.30
2018-07-19T05:24:44.472Z,19.30
2018-07-19T05:27:15.234Z,19.30
2018-07-19T05:29:45.922Z,19.30
2018-07-19T05:32:16.572Z,19.30
2018-07-19T05:34:47.174Z,19.30
2018-07-19T05:37:18.748Z,19.30
2018-07-19T05:39:49.926Z,19.30
2018-07-19T05:42:20.775Z,19.30
2018-07-19T05:44:55.978Z,19.30
2018-07-19T05:47:26.829Z,19.30
2018-07-19T05:50:01.283Z,19.30
2018-07-19T05:55:09.482Z,19.30
2018-07-19T05:57:39.993Z,19.30
2018-07-19T06:00:10.579Z,19.30
2018-07-19T06:05:11.993Z,19.30
2018-07-19T06:07:47.154Z,19.30
2018-07-19T06:10:17.642Z,19.30
2018-07-19T06:12:48.293Z,19.30
2018-07-19T06:15:20.246Z,19.30
2018-07-19T06:17:51.067Z,19.30
2018-07-19T06:20:21.721Z,19.30
2018-07-19T06:22:52.469Z,19.30
2018-07-19T06:25:27.197Z,19.30
2018-07-19T06:27:57.816Z,19.30
2018-07-19T06:30:28.826Z,19.30
2018-07-19T06:32:59.395Z,19.30
2018-07-19T06:35:30.029Z,19.30
2018-07-19T06:38:00.502Z,19.40
2018-07-19T06:40:37.913Z,19.30
2018-07-19T06:43:15.144Z,19.40
2018-07-19T06:45:47.893Z,19.40
2018-07-19T06:48:19.602Z,19.40
2018-07-19T06:50:50.178Z,19.40
2018-07-19T06:53:21.466Z,19.40
2018-07-19T06:55:52.192Z,19.40
2018-07-19T06:58:22.683Z,19.50
2018-07-19T07:00:53.225Z,19.50
2018-07-19T07:03:24.008Z,19.50
2018-07-19T07:05:54.686Z,19.50
2018-07-19T07:08:25.231Z,19.60
2018-07-19T07:10:55.908Z,19.60
2018-07-19T07:13:26.718Z,19.60
2018-07-19T07:15:57.234Z,19.60
2018-07-19T07:18:27.757Z,19.70
2018-07-19T07:20:58.555Z,19.70
2018-07-19T07:23:29.229Z,19.70
2018-07-19T07:25:59.940Z,19.70
2018-07-19T07:28:30.579Z,19.80
2018-07-19T07:31:01.349Z,19.80
2018-07-19T07:33:32.190Z,19.80
2018-07-19T07:38:32.925Z,20.00
2018-07-19T07:41:03.578Z,20.00
2018-07-19T07:43:34.275Z,20.00
2018-07-19T07:46:05.003Z,20.00
2018-07-19T07:48:35.701Z,20.00
2018-07-19T07:51:07.887Z,20.10
2018-07-19T07:53:38.689Z,20.10
2018-07-19T07:56:09.312Z,20.10
2018-07-19T07:58:39.938Z,20.10
2018-07-19T08:01:10.654Z,20.20
2018-07-19T08:03:41.260Z,20.20
2018-07-19T08:06:11.777Z,20.20
2018-07-19T08:08:43.181Z,20.20
2018-07-19T08:11:14.069Z,20.20
2018-07-19T08:13:44.853Z,20.20
2018-07-19T08:16:31.021Z,20.20
2018-07-19T08:21:34.985Z,20.30
2018-07-19T08:24:06.689Z,20.30
2018-07-19T08:26:37.495Z,20.40
2018-07-19T08:29:08.600Z,20.50
2018-07-19T08:31:39.474Z,20.40
2018-07-19T08:34:11.331Z,20.40
2018-07-19T08:36:46.619Z,20.40
2018-07-19T08:39:17.547Z,20.50
2018-07-19T08:42:02.160Z,20.50
2018-07-19T08:44:45.261Z,20.60
2018-07-19T08:47:16.899Z,20.60
2018-07-19T08:49:48.157Z,20.60
2018-07-19T08:52:19.090Z,20.60
2018-07-19T08:54:49.708Z,20.50
2018-07-19T08:57:20.585Z,20.60
2018-07-19T08:59:51.398Z,20.60
2018-07-19T09:02:22.703Z,20.60
2018-07-19T09:04:53.309Z,20.70
2018-07-19T09:07:23.767Z,20.70
2018-07-19T09:09:54.318Z,20.80
2018-07-19T09:12:24.848Z,20.80
2018-07-19T09:14:55.538Z,20.90
2018-07-19T09:17:26.118Z,20.90
2018-07-19T09:19:56.621Z,20.90
2018-07-19T09:22:27.308Z,21.00
2018-07-19T09:24:58.270Z,21.10
2018-07-19T09:27:33.901Z,21.10
2018-07-19T09:30:06.650Z,21.10
2018-07-19T09:32:37.648Z,21.10
2018-07-19T09:35:08.639Z,21.20
2018-07-19T09:37:39.567Z,21.20
2018-07-19T09:40:10.734Z,21.30
2018-07-19T09:42:41.551Z,21.30
2018-07-19T09:45:12.159Z,21.30
2018-07-19T09:47:42.701Z,21.30
2018-07-19T09:50:13.330Z,21.30
2018-07-19T09:52:43.852Z,21.40
2018-07-19T09:55:14.447Z,21.40
2018-07-19T09:57:45.116Z,21.40
2018-07-19T10:00:20.259Z,21.50
2018-07-19T10:02:50.993Z,21.50
2018-07-19T10:05:21.538Z,21.50
2018-07-19T10:07:52.201Z,21.60
2018-07-19T10:10:23.375Z,21.60
2018-07-19T10:15:27.274Z,21.60
2018-07-19T10:18:06.677Z,21.70
2018-07-19T10:20:49.054Z,21.70
2018-07-19T10:23:21.212Z,21.80
2018-07-19T10:25:51.803Z,21.80
2018-07-19T10:28:22.456Z,21.90
2018-07-19T10:30:53.238Z,21.90
2018-07-19T10:33:23.942Z,22.00
2018-07-19T10:35:54.487Z,22.00
2018-07-19T10:38:25.097Z,22.00
2018-07-19T10:40:55.631Z,22.10
2018-07-19T10:43:26.701Z,22.20
2018-07-19T10:45:57.570Z,22.70
2018-07-19T10:48:27.987Z,22.60
2018-07-19T10:50:58.549Z,22.70
2018-07-19T10:53:29.047Z,22.90
2018-07-19T10:55:59.708Z,22.90
2018-07-19T10:58:30.521Z,23.00
2018-07-19T11:01:01.486Z,23.10
2018-07-19T11:03:32.810Z,23.30
2018-07-19T11:06:04.345Z,23.20
2018-07-19T11:08:37.024Z,23.20
2018-07-19T11:11:12.111Z,22.90
2018-07-19T11:13:43.655Z,22.80
2018-07-19T11:16:14.437Z,22.80
2018-07-19T11:18:46.666Z,22.70
2018-07-19T11:21:17.118Z,22.70
2018-07-19T11:23:49.183Z,22.70
2018-07-19T11:26:20.984Z,22.70
2018-07-19T11:28:53.052Z,22.70
2018-07-19T11:31:25.200Z,22.70
2018-07-19T11:33:56.494Z,22.80
2018-07-19T11:36:29.233Z,22.80
2018-07-19T11:39:00.786Z,22.90
2018-07-19T11:41:33.078Z,22.90
2018-07-19T11:44:04.842Z,22.90
2018-07-19T11:46:35.303Z,23.00
2018-07-19T11:49:06.542Z,23.00
2018-07-19T11:51:40.202Z,23.00
2018-07-19T11:54:14.468Z,23.00
2018-07-19T11:56:46.571Z,23.00
2018-07-19T11:59:22.083Z,23.10
2018-07-19T12:01:53.549Z,23.10
2018-07-19T12:04:25.567Z,23.20
2018-07-19T12:06:56.154Z,23.20
2018-07-19T12:09:26.684Z,23.20
2018-07-19T12:11:57.248Z,23.20
2018-07-19T12:14:27.978Z,23.20
2018-07-19T12:16:58.828Z,23.30
2018-07-19T12:19:29.430Z,23.30
2018-07-19T12:22:00.228Z,23.30
2018-07-19T12:24:31.111Z,23.40
2018-07-19T12:27:01.801Z,23.40
2018-07-19T12:29:32.433Z,23.40
2018-07-19T12:32:02.865Z,23.40
2018-07-19T12:34:34.346Z,23.50
2018-07-19T12:37:05.148Z,23.50
2018-07-19T12:39:35.693Z,23.50
2018-07-19T12:42:06.354Z,23.50
2018-07-19T12:44:37.223Z,23.50
2018-07-19T12:47:07.764Z,23.50
2018-07-19T12:49:38.342Z,23.50
2018-07-19T12:52:09.092Z,23.50
2018-07-19T12:54:39.723Z,23.60
2018-07-19T12:59:40.313Z,23.60
2018-07-19T13:02:11.111Z,23.70
2018-07-19T13:04:41.729Z,23.70
2018-07-19T13:07:12.299Z,23.80
2018-07-19T13:09:42.915Z,23.80
2018-07-19T13:12:14.986Z,23.80
2018-07-19T13:14:45.609Z,23.80
2018-07-19T13:17:16.212Z,23.80
2018-07-19T13:19:47.472Z,23.90
2018-07-19T13:22:17.987Z,24.00
2018-07-19T13:24:48.657Z,24.00
2018-07-19T13:27:19.292Z,23.90
2018-07-19T13:29:49.999Z,24.00
2018-07-19T13:32:21.886Z,23.90
2018-07-19T13:34:52.626Z,24.00
2018-07-19T13:37:23.486Z,24.00
2018-07-19T13:40:00.104Z,24.00
2018-07-19T13:42:31.439Z,24.00
2018-07-19T13:45:04.540Z,24.00
2018-07-19T13:47:35.738Z,24.00
2018-07-19T13:50:07.535Z,24.10
2018-07-19T13:52:48.654Z,24.10
2018-07-19T13:55:20.019Z,24.10
2018-07-19T13:57:51.430Z,24.10
2018-07-19T14:00:24.134Z,24.10
2018-07-19T14:02:55.925Z,24.10
2018-07-19T14:05:31.140Z,24.10
2018-07-19T14:08:01.825Z,24.20
2018-07-19T14:10:35.013Z,24.10
2018-07-19T14:13:06.752Z,24.20
2018-07-19T14:15:39.559Z,24.20
2018-07-19T14:18:10.905Z,24.20
2018-07-19T14:20:42.901Z,24.20
2018-07-19T14:23:16.187Z,24.20
2018-07-19T14:25:47.938Z,24.20
2018-07-19T14:28:18.605Z,24.30
2018-07-19T14:30:50.874Z,24.20
2018-07-19T14:33:22.530Z,24.30
2018-07-19T14:35:58.026Z,24.30
2018-07-19T14:38:30.610Z,24.30
2018-07-19T14:41:01.051Z,24.30
2018-07-19T14:43:33.659Z,24.30
2018-07-19T14:46:05.799Z,24.30
2018-07-19T14:48:38.814Z,24.30
2018-07-19T14:51:10.970Z,24.30
2018-07-19T14:53:43.001Z,24.30
2018-07-19T14:56:14.244Z,24.30
2018-07-19T14:58:45.623Z,24.30
2018-07-19T15:01:16.161Z,24.30
2018-07-19T15:03:50.941Z,24.30
2018-07-19T15:06:22.372Z,24.30
2018-07-19T15:08:54.029Z,24.30
2018-07-19T15:11:26.326Z,24.30
2018-07-19T15:13:58.207Z,24.30
2018-07-19T15:16:29.656Z,24.30
2018-07-19T15:19:02.733Z,24.40
2018-07-19T15:21:34.019Z,24.40
2018-07-19T15:24:43.863Z,24.30
2018-07-19T15:27:15.387Z,24.50
2018-07-19T15:29:45.835Z,24.80
2018-07-19T15:32:18.217Z,24.80
2018-07-19T15:34:52.882Z,24.70
2018-07-19T15:49:34.390Z,24.60
2018-07-19T15:52:06.813Z,24.60
2018-07-19T15:54:37.507Z,24.60
2018-07-19T15:57:08.263Z,24.50
2018-07-19T15:59:40.609Z,24.60
2018-07-19T16:02:13.099Z,24.60
2018-07-19T16:04:43.902Z,24.50
2018-07-19T16:07:15.602Z,24.50
2018-07-19T16:09:46.608Z,24.40
2018-07-19T16:12:17.313Z,24.50
2018-07-19T16:14:49.009Z,24.50
2018-07-19T16:17:22.685Z,24.50
2018-07-19T16:19:54.092Z,24.40
2018-07-19T16:22:24.955Z,24.40
2018-07-19T16:24:55.554Z,24.40
2018-07-19T16:27:27.960Z,24.40
2018-07-19T16:30:02.184Z,24.30
2018-07-19T16:32:34.801Z,24.30
2018-07-19T16:35:09.175Z,24.20
2018-07-19T16:37:41.920Z,24.20
2018-07-19T16:40:12.638Z,24.20
2018-07-19T16:42:45.236Z,24.20
2018-07-19T16:45:16.570Z,24.20
2018-07-19T16:47:48.724Z,24.20
2018-07-19T16:50:19.282Z,24.10
2018-07-19T16:52:50.075Z,24.10
2018-07-19T16:55:21.008Z,23.90
2018-07-19T16:57:51.510Z,23.80
2018-07-19T17:00:22.025Z,23.80
2018-07-19T17:02:52.497Z,23.80
2018-07-19T17:05:27.303Z,23.70
2018-07-19T17:07:59.154Z,23.70
2018-07-19T17:13:02.952Z,23.60
2018-07-19T17:15:34.166Z,23.40
2018-07-19T17:18:06.103Z,23.40
2018-07-19T17:20:36.729Z,23.40
2018-07-19T17:23:10.624Z,23.40
2018-07-19T17:25:44.221Z,23.50
2018-07-19T17:28:17.508Z,23.40
2018-07-19T17:30:55.447Z,23.40
2018-07-19T17:33:36.833Z,23.40
2018-07-19T17:36:13.491Z,23.40
2018-07-19T17:38:53.662Z,23.30
2018-07-19T17:41:27.521Z,23.20
2018-07-19T17:44:00.163Z,23.10
2018-07-19T17:46:34.462Z,23.10
2018-07-19T17:49:06.285Z,23.20
2018-07-19T17:51:43.202Z,23.10
2018-07-19T17:54:16.520Z,23.00
2018-07-19T17:56:53.955Z,23.00
2018-07-19T17:59:28.623Z,23.00
2018-07-19T18:02:01.051Z,22.90
2018-07-19T18:04:32.775Z,22.80
2018-07-19T18:07:07.533Z,22.70
2018-07-19T18:09:43.377Z,22.70
2018-07-19T18:12:15.791Z,22.60
2018-07-19T18:14:49.616Z,22.70
2018-07-19T18:17:26.226Z,23.00
2018-07-19T18:20:03.179Z,23.20
2018-07-19T18:22:36.858Z,23.30
2018-07-19T18:25:13.218Z,23.40
2018-07-19T18:27:55.015Z,23.40
2018-07-19T18:30:29.000Z,23.50
2018-07-19T18:33:09.588Z,23.50
2018-07-19T18:35:43.456Z,23.50
2018-07-19T18:38:17.833Z,23.50
2018-07-19T18:40:53.713Z,23.50
2018-07-19T18:43:39.158Z,23.50
2018-07-19T18:46:16.436Z,23.50
2018-07-19T18:49:06.205Z,23.50
2018-07-19T18:54:37.085Z,23.50
2018-07-19T18:57:12.089Z,23.50
2018-07-19T19:00:09.318Z,23.50
2018-07-19T19:02:41.772Z,23.50
2018-07-19T19:05:17.375Z,23.40
2018-07-19T19:07:53.798Z,23.50
2018-07-19T19:10:34.013Z,23.40
2018-07-19T19:13:08.748Z,23.40
2018-07-19T19:15:58.803Z,23.50
2018-07-19T19:18:32.487Z,23.40
2018-07-19T19:29:16.733Z,23.40
2018-07-19T19:31:52.405Z,23.40
2018-07-19T19:34:37.023Z,23.40
2018-07-19T19:37:10.366Z,23.30
2018-07-19T19:39:48.511Z,23.30
2018-07-19T19:42:54.698Z,23.30
2018-07-19T19:45:27.118Z,23.30
2018-07-19T19:50:58.363Z,23.30
2018-07-19T19:53:29.112Z,23.20
2018-07-19T19:55:59.655Z,23.20
2018-07-19T19:58:30.241Z,23.20
2018-07-19T20:01:01.432Z,23.20
2018-07-19T20:03:31.905Z,23.20
2018-07-19T20:06:02.651Z,23.10
2018-07-19T20:08:33.323Z,23.10
2018-07-19T20:11:03.954Z,23.10
2018-07-19T20:13:34.609Z,23.10
2018-07-19T20:16:05.398Z,23.10
2018-07-19T20:18:36.150Z,22.70
2018-07-19T20:21:07.041Z,22.00
2018-07-19T20:23:37.738Z,21.70
2018-07-19T20:26:08.559Z,21.30
2018-07-19T20:28:39.216Z,21.10
2018-07-19T20:31:09.841Z,21.00
2018-07-19T20:33:40.484Z,21.00
2018-07-19T20:36:11.076Z,20.80
2018-07-19T20:38:41.670Z,20.70
2018-07-19T20:41:12.080Z,20.60
2018-07-19T20:43:42.915Z,20.50
2018-07-19T20:46:13.326Z,20.40
2018-07-19T20:48:43.865Z,20.30
2018-07-19T20:51:14.415Z,20.20
2018-07-19T20:53:45.117Z,20.30
2018-07-19T20:56:15.683Z,20.20
2018-07-19T20:58:46.269Z,20.10
2018-07-19T21:01:16.722Z,20.50
2018-07-19T21:03:47.430Z,21.00
2018-07-19T21:06:17.965Z,21.30
2018-07-19T21:08:48.657Z,21.40
2018-07-19T21:11:19.344Z,21.50
2018-07-19T21:13:49.760Z,21.60
2018-07-19T21:16:20.307Z,21.60
2018-07-19T21:18:51.000Z,21.60
2018-07-19T21:21:21.787Z,21.70
2018-07-19T21:23:52.311Z,21.70
2018-07-19T21:26:23.653Z,21.70
2018-07-19T21:28:55.501Z,21.70
2018-07-19T21:31:26.018Z,21.70
2018-07-19T21:33:56.696Z,21.80
2018-07-19T21:36:27.348Z,21.70
2018-07-19T21:38:58.130Z,21.70
2018-07-19T21:41:28.671Z,21.70
2018-07-19T21:43:59.361Z,21.70
2018-07-19T21:46:30.180Z,21.70
2018-07-19T21:49:02.095Z,21.70
2018-07-19T21:51:32.646Z,21.70
2018-07-19T21:54:03.521Z,21.70
2018-07-19T21:56:35.365Z,21.70
2018-07-19T21:59:05.986Z,21.70
2018-07-19T22:01:45.877Z,21.60
2018-07-19T22:04:20.078Z,21.70
2018-07-19T22:06:50.967Z,21.60
2018-07-19T22:09:23.088Z,21.60
2018-07-19T22:11:53.657Z,21.60
2018-07-19T22:14:24.235Z,21.60
2018-07-19T22:16:54.978Z,21.60
2018-07-19T22:19:25.446Z,21.60
2018-07-19T22:21:56.033Z,21.60
2018-07-19T22:24:26.560Z,21.60
2018-07-19T22:29:58.090Z,21.50
2018-07-19T22:32:28.704Z,21.50
2018-07-19T22:34:59.179Z,21.50
2018-07-19T22:37:30.075Z,21.50
2018-07-19T22:40:00.814Z,21.40
2018-07-19T22:42:31.435Z,21.50
2018-07-19T22:45:01.866Z,21.40
2018-07-19T22:47:32.407Z,21.40
2018-07-19T22:50:03.075Z,21.40
2018-07-19T22:52:33.989Z,21.40
2018-07-19T22:55:05.704Z,21.40
2018-07-19T22:57:44.918Z,21.30
2018-07-19T23:00:21.533Z,21.40
2018-07-19T23:02:56.490Z,21.30
2018-07-19T23:05:27.155Z,21.30
2018-07-19T23:07:57.770Z,21.30
2018-07-19T23:10:30.404Z,21.30
2018-07-19T23:13:14.419Z,21.30
2018-07-19T23:15:45.993Z,21.20
2018-07-19T23:20:49.858Z,21.20
2018-07-19T23:23:22.470Z,21.20
2018-07-19T23:26:01.122Z,21.10
2018-07-19T23:28:38.909Z,21.10
2018-07-19T23:31:12.431Z,21.10
2018-07-19T23:33:56.012Z,21.10
2018-07-19T23:36:34.525Z,21.00
2018-07-19T23:39:38.346Z,21.00
2018-07-19T23:42:19.979Z,21.00
2018-07-19T23:45:04.263Z,21.00
2018-07-19T23:47:40.173Z,20.90
2018-07-19T23:50:18.694Z,20.90
2018-07-19T23:55:34.677Z,20.90
2018-07-19T23:58:08.079Z,20.80
